createdAt,value
2023-03-26T00:01:21.410Z,61.71
2023-03-26T00:03:53.865Z,61.86
2023-03-26T00:06:27.130Z,61.94
2023-03-26T00:08:59.279Z,62.00
2023-03-26T00:11:29.436Z,62.04
2023-03-26T00:13:58.126Z,62.13
2023-03-26T00:16:28.973Z,62.07
2023-03-26T00:18:58.056Z,64.43
2023-03-26T00:21:28.458Z,61.52
2023-03-26T00:23:59.853Z,58.23
2023-03-26T00:26:29.723Z,57.40
2023-03-26T00:29:01.867Z,57.67
2023-03-26T00:31:30.420Z,58.56
2023-03-26T00:33:58.396Z,59.11
2023-03-26T00:36:26.899Z,59.30
2023-03-26T00:38:55.525Z,59.57
2023-03-26T00:41:26.453Z,59.84
2023-03-26T00:43:57.648Z,60.20
2023-03-26T00:46:28.028Z,60.60
2023-03-26T00:48:59.929Z,60.63
2023-03-26T00:51:28.724Z,60.76
2023-03-26T00:53:57.804Z,60.88
2023-03-26T00:56:26.856Z,61.03
2023-03-26T00:58:54.912Z,61.12
2023-03-26T01:01:28.472Z,61.37
2023-03-26T01:04:07.562Z,61.65
2023-03-26T01:06:41.461Z,61.64
2023-03-26T01:09:18.820Z,61.71
2023-03-26T01:11:48.779Z,61.89
2023-03-26T01:14:26.854Z,62.09
2023-03-26T01:16:57.143Z,62.07
2023-03-26T01:19:25.016Z,62.25
2023-03-26T01:21:52.987Z,62.32
2023-03-26T01:24:22.299Z,63.09
2023-03-26T01:27:09.681Z,62.26
2023-03-26T01:30:07.084Z,58.49
2023-03-26T01:32:51.704Z,57.09
2023-03-26T01:35:25.681Z,57.95
2023-03-26T01:38:11.380Z,58.17
2023-03-26T01:40:55.363Z,58.95
2023-03-26T01:43:33.380Z,59.81
2023-03-26T01:46:04.384Z,60.05
2023-03-26T01:48:38.685Z,60.26
2023-03-26T01:51:07.465Z,61.11
2023-03-26T01:53:38.313Z,61.28
2023-03-26T01:56:19.951Z,61.63
2023-03-26T01:59:09.486Z,61.99
2023-03-26T02:02:01.223Z,61.77
2023-03-26T02:04:53.297Z,63.63
2023-03-26T02:07:28.750Z,59.98
2023-03-26T02:09:59.688Z,57.63
2023-03-26T02:12:28.064Z,58.03
2023-03-26T02:14:56.341Z,58.77
2023-03-26T02:17:24.583Z,59.64
2023-03-26T02:19:54.268Z,59.90
2023-03-26T02:22:23.008Z,60.69
2023-03-26T02:24:51.036Z,61.25
2023-03-26T02:27:19.276Z,61.42
2023-03-26T02:29:47.880Z,61.68
2023-03-26T02:32:19.391Z,62.81
2023-03-26T02:34:47.486Z,64.76
2023-03-26T02:37:18.897Z,58.11
2023-03-26T02:39:47.763Z,57.72
2023-03-26T02:42:24.795Z,59.10
2023-03-26T02:44:53.839Z,60.10
2023-03-26T02:47:21.997Z,61.27
2023-03-26T02:49:53.566Z,61.64
2023-03-26T02:52:26.375Z,62.55
2023-03-26T02:54:56.589Z,61.95
2023-03-26T02:57:26.396Z,60.45
2023-03-26T03:00:15.294Z,57.69
2023-03-26T03:03:06.686Z,59.02
2023-03-26T03:05:35.194Z,60.62
2023-03-26T03:08:23.643Z,61.72
2023-03-26T03:11:27.355Z,63.22
2023-03-26T03:13:55.495Z,61.52
2023-03-26T03:16:25.878Z,57.70
2023-03-26T03:18:57.428Z,57.18
2023-03-26T03:21:36.296Z,57.80
2023-03-26T03:24:08.060Z,59.17
2023-03-26T03:26:38.823Z,59.87
2023-03-26T03:29:16.747Z,62.52
2023-03-26T03:31:44.816Z,62.67
2023-03-26T03:34:25.545Z,60.74
2023-03-26T03:36:53.833Z,57.49
2023-03-26T03:39:42.266Z,58.95
2023-03-26T03:42:13.424Z,60.32
2023-03-26T03:44:44.401Z,60.57
2023-03-26T03:47:26.733Z,62.37
2023-03-26T03:49:54.787Z,63.21
2023-03-26T03:52:25.174Z,62.08
2023-03-26T03:54:53.582Z,57.36
2023-03-26T03:57:44.351Z,57.78
2023-03-26T04:00:17.986Z,57.95
2023-03-26T04:02:50.556Z,60.04
2023-03-26T04:05:18.946Z,61.23
2023-03-26T04:07:48.609Z,61.73
2023-03-26T04:10:52.102Z,62.22
2023-03-26T04:13:38.702Z,58.61
2023-03-26T04:16:19.190Z,58.02
2023-03-26T04:18:49.633Z,58.38
2023-03-26T04:21:17.577Z,59.56
2023-03-26T04:23:45.999Z,61.02
2023-03-26T04:26:25.178Z,62.11
2023-03-26T04:29:06.818Z,62.24
2023-03-26T04:31:38.349Z,63.90
2023-03-26T04:34:13.634Z,61.92
2023-03-26T04:36:54.686Z,56.31
2023-03-26T04:39:34.089Z,56.42
2023-03-26T04:42:33.419Z,58.69
2023-03-26T04:45:09.329Z,59.81
2023-03-26T04:47:39.136Z,60.09
2023-03-26T04:50:09.344Z,61.58
2023-03-26T04:52:38.285Z,63.20
2023-03-26T04:55:39.841Z,61.86
2023-03-26T04:58:14.358Z,58.00
2023-03-26T05:01:09.857Z,57.04
2023-03-26T05:03:41.311Z,59.29
2023-03-26T05:06:11.461Z,60.61
2023-03-26T05:08:39.368Z,61.11
2023-03-26T05:11:11.541Z,63.24
2023-03-26T05:13:42.844Z,63.56
2023-03-26T05:16:12.559Z,61.48
2023-03-26T05:18:53.107Z,57.19
2023-03-26T05:21:25.836Z,55.78
2023-03-26T05:23:54.063Z,56.70
2023-03-26T05:26:22.990Z,58.11
2023-03-26T05:28:52.797Z,58.81
2023-03-26T05:31:41.391Z,59.62
2023-03-26T05:34:09.590Z,61.22
2023-03-26T05:36:37.954Z,62.72
2023-03-26T05:39:27.072Z,63.30
2023-03-26T05:42:10.334Z,60.85
2023-03-26T05:44:54.289Z,56.26
2023-03-26T05:47:26.394Z,56.52
2023-03-26T05:49:54.599Z,56.74
2023-03-26T05:52:23.007Z,59.23
2023-03-26T05:55:29.201Z,60.61
2023-03-26T05:58:15.953Z,60.32
2023-03-26T06:01:08.677Z,62.31
2023-03-26T06:03:57.037Z,64.34
2023-03-26T06:06:28.904Z,61.57
2023-03-26T06:09:01.767Z,56.58
2023-03-26T06:11:35.066Z,56.45
2023-03-26T06:14:05.729Z,57.80
2023-03-26T06:16:34.371Z,59.61
2023-03-26T06:19:38.023Z,60.81
2023-03-26T06:22:24.864Z,62.16
2023-03-26T06:25:24.932Z,62.40
2023-03-26T06:28:06.190Z,61.78
2023-03-26T06:30:53.968Z,57.03
2023-03-26T06:33:51.484Z,57.04
2023-03-26T06:36:19.665Z,58.82
2023-03-26T06:38:50.705Z,59.94
2023-03-26T06:41:18.705Z,60.91
2023-03-26T06:44:16.101Z,60.54
2023-03-26T06:47:02.732Z,62.53
2023-03-26T06:49:49.386Z,61.27
2023-03-26T06:52:20.000Z,57.92
2023-03-26T06:55:10.454Z,58.14
2023-03-26T06:57:51.311Z,59.21
2023-03-26T07:00:38.801Z,59.89
2023-03-26T07:03:25.830Z,60.70
2023-03-26T07:06:12.282Z,60.71
2023-03-26T07:08:59.066Z,60.58
2023-03-26T07:11:32.167Z,61.00
2023-03-26T07:14:18.948Z,61.57
2023-03-26T07:17:10.748Z,60.88
2023-03-26T07:19:49.243Z,60.64
2023-03-26T07:22:23.296Z,60.91
2023-03-26T07:25:11.054Z,61.15
2023-03-26T07:28:06.544Z,61.30
2023-03-26T07:31:03.909Z,61.35
2023-03-26T07:33:50.575Z,61.61
2023-03-26T07:36:57.915Z,62.28
2023-03-26T07:40:15.175Z,62.23
2023-03-26T07:43:13.567Z,62.63
2023-03-26T07:46:01.211Z,61.59
2023-03-26T07:48:54.989Z,58.58
2023-03-26T07:51:43.563Z,57.70
2023-03-26T07:54:29.035Z,58.64
2023-03-26T07:58:21.563Z,59.16
2023-03-26T08:01:23.219Z,60.22
2023-03-26T08:04:23.174Z,60.46
2023-03-26T08:07:31.275Z,60.04
2023-03-26T08:10:27.682Z,61.19
2023-03-26T08:13:29.590Z,61.73
2023-03-26T08:16:08.980Z,61.94
2023-03-26T08:18:56.861Z,63.07
2023-03-26T08:21:31.933Z,63.05
2023-03-26T08:24:13.341Z,58.44
2023-03-26T08:27:08.828Z,58.45
2023-03-26T08:29:45.315Z,60.25
2023-03-26T08:32:16.335Z,61.04
2023-03-26T08:34:45.455Z,61.54
2023-03-26T08:37:13.674Z,63.91
2023-03-26T08:39:42.548Z,63.46
2023-03-26T08:42:46.166Z,60.54
2023-03-26T08:45:36.141Z,56.71
2023-03-26T08:48:35.622Z,57.19
2023-03-26T08:51:13.766Z,59.92
2023-03-26T08:54:13.368Z,61.43
2023-03-26T08:57:03.954Z,62.99
2023-03-26T08:59:47.180Z,63.54
2023-03-26T14:02:42.612Z,42.44
2023-03-26T14:05:28.631Z,42.70
2023-03-26T14:08:52.417Z,42.99
2023-03-26T14:11:28.238Z,43.02
2023-03-26T14:14:10.953Z,43.25
2023-03-26T14:16:47.191Z,43.72
2023-03-26T14:19:34.028Z,43.28
2023-03-26T14:22:18.348Z,43.44
2023-03-26T14:25:02.752Z,44.07
2023-03-26T14:27:51.743Z,43.65
2023-03-26T14:30:49.104Z,43.49
2023-03-26T14:33:55.538Z,43.01
2023-03-26T14:36:54.757Z,42.98
2023-03-26T14:39:38.671Z,42.28
2023-03-26T14:42:15.393Z,40.78
2023-03-26T14:44:56.751Z,39.48
2023-03-26T14:47:25.378Z,37.49
2023-03-26T14:50:28.818Z,34.33
2023-03-26T14:53:01.355Z,32.04
2023-03-26T14:56:13.722Z,31.15
2023-03-26T14:59:18.978Z,30.14
2023-03-26T15:02:25.277Z,29.08
2023-03-26T15:05:07.238Z,29.40
2023-03-26T15:07:51.134Z,30.59
2023-03-26T15:10:47.287Z,32.26
2023-03-26T15:13:56.312Z,33.79
2023-03-26T15:16:46.407Z,35.44
2023-03-26T15:19:23.548Z,36.29
2023-03-26T15:22:36.255Z,37.32
2023-03-26T15:25:09.899Z,38.80
2023-03-26T15:28:21.519Z,40.01
2023-03-26T15:31:19.172Z,40.71
2023-03-26T15:34:08.939Z,41.82
2023-03-26T15:37:05.276Z,42.60
2023-03-26T15:40:08.112Z,42.96
2023-03-26T15:43:03.041Z,43.77
2023-03-26T15:45:41.389Z,43.99
2023-03-26T15:48:12.439Z,44.47
2023-03-26T15:51:26.138Z,45.00
2023-03-26T15:54:23.758Z,44.90
2023-03-26T15:57:03.244Z,45.26
2023-03-26T15:59:52.483Z,45.65
2023-03-26T16:02:43.878Z,45.84
2023-03-26T16:05:33.600Z,46.24
2023-03-26T16:08:19.101Z,46.16
2023-03-26T16:11:08.203Z,46.87
2023-03-26T16:13:41.284Z,47.00
2023-03-26T16:17:13.086Z,47.34
2023-03-26T16:20:20.254Z,47.87
2023-03-26T16:22:55.015Z,48.38
2023-03-26T16:25:28.674Z,48.31
2023-03-26T16:28:09.594Z,48.37
2023-03-26T16:30:38.297Z,48.73
2023-03-26T16:33:31.996Z,48.93
2023-03-26T16:36:02.020Z,48.97
2023-03-26T16:38:59.537Z,49.23
2023-03-26T16:41:32.567Z,49.16
2023-03-26T16:44:28.336Z,49.45
2023-03-26T16:47:18.557Z,49.56
2023-03-26T16:50:08.984Z,49.76
2023-03-26T16:52:44.139Z,49.77
2023-03-26T16:55:31.072Z,50.00
2023-03-26T16:58:17.231Z,50.19
2023-03-26T17:00:48.597Z,50.50
2023-03-26T17:03:35.564Z,50.62
2023-03-26T17:06:20.910Z,50.75
2023-03-26T17:09:18.070Z,50.80
2023-03-26T17:12:04.779Z,50.78
2023-03-26T17:14:50.217Z,50.97
2023-03-26T17:17:23.831Z,51.02
2023-03-26T17:19:59.559Z,51.20
2023-03-26T17:22:41.941Z,51.33
2023-03-26T17:25:57.524Z,51.36
2023-03-26T17:28:42.772Z,51.43
2023-03-26T17:31:19.812Z,51.98
2023-03-26T17:33:48.121Z,52.46
2023-03-26T17:36:22.147Z,53.12
2023-03-26T17:38:49.998Z,53.44
2023-03-26T17:42:23.244Z,54.63
2023-03-26T17:44:55.992Z,54.32
2023-03-26T17:47:54.029Z,54.25
2023-03-26T17:50:50.896Z,54.96
2023-03-26T17:53:38.610Z,54.80
2023-03-26T17:56:16.873Z,55.17
2023-03-26T17:58:50.885Z,55.62
2023-03-26T18:01:37.097Z,56.14
2023-03-26T18:04:19.954Z,56.48
2023-03-26T18:07:06.764Z,56.53
2023-03-26T18:10:06.794Z,56.75
2023-03-26T18:12:42.520Z,56.56
2023-03-26T18:15:30.594Z,56.74
2023-03-26T18:18:46.636Z,57.07
2023-03-26T18:21:33.699Z,56.85
2023-03-26T18:24:03.999Z,56.90
2023-03-26T18:26:42.081Z,57.07
2023-03-26T18:29:17.443Z,57.25
2023-03-26T18:31:46.783Z,57.54
2023-03-26T18:34:19.711Z,57.18
2023-03-26T18:37:10.253Z,57.39
2023-03-26T18:45:32.334Z,57.19
2023-03-26T18:48:13.794Z,57.46
2023-03-26T18:50:42.467Z,57.66
2023-03-26T18:53:20.729Z,57.69
2023-03-26T18:55:50.791Z,57.84
2023-03-26T18:58:27.582Z,58.05
2023-03-26T19:01:04.346Z,57.97
2023-03-26T19:03:39.979Z,58.11
2023-03-26T19:06:11.063Z,58.32
2023-03-26T19:08:42.562Z,58.27
2023-03-26T19:11:12.052Z,58.45
2023-03-26T19:13:44.282Z,58.75
2023-03-26T19:16:24.411Z,58.78
2023-03-26T19:18:52.881Z,58.71
2023-03-26T19:21:23.316Z,58.76
2023-03-26T19:23:52.315Z,58.74
2023-03-26T19:26:22.913Z,58.78
2023-03-26T19:28:53.817Z,58.82
2023-03-26T19:31:30.385Z,58.84
2023-03-26T19:34:00.681Z,58.87
2023-03-26T19:36:32.142Z,58.75
2023-03-26T19:39:02.609Z,58.87
2023-03-26T19:41:32.133Z,59.23
2023-03-26T19:44:03.425Z,59.67
2023-03-26T19:46:53.896Z,59.77
2023-03-26T19:49:42.589Z,59.84
2023-03-26T19:52:18.450Z,60.19
2023-03-26T19:55:01.361Z,60.59
2023-03-26T19:57:36.453Z,60.89
2023-03-26T20:00:13.748Z,61.12
2023-03-26T20:02:43.362Z,61.19
2023-03-26T20:05:26.446Z,61.70
2023-03-26T20:07:58.478Z,61.64
2023-03-26T20:10:27.630Z,61.66
2023-03-26T20:12:56.253Z,61.97
2023-03-26T20:15:28.680Z,65.21
2023-03-26T20:17:57.092Z,67.30
2023-03-26T20:20:27.233Z,62.26
2023-03-26T20:22:55.804Z,56.68
2023-03-26T20:25:29.996Z,54.11
2023-03-26T20:27:59.549Z,54.65
2023-03-26T20:33:12.962Z,56.28
2023-03-26T20:35:46.648Z,56.90
2023-03-26T20:38:19.814Z,57.52
2023-03-26T20:40:49.687Z,58.16
2023-03-26T20:43:22.536Z,58.51
2023-03-26T20:45:52.617Z,58.75
2023-03-26T20:48:21.000Z,59.37
2023-03-26T20:50:50.936Z,59.42
2023-03-26T20:53:20.879Z,59.50
2023-03-26T20:55:51.021Z,59.86
2023-03-26T20:58:31.341Z,59.87
2023-03-26T21:01:02.079Z,60.19
2023-03-26T21:03:31.448Z,60.43
2023-03-26T21:06:07.677Z,60.62
2023-03-26T21:08:37.305Z,60.82
2023-03-26T21:11:27.411Z,60.99
2023-03-26T21:14:08.692Z,60.98
2023-03-26T21:16:37.581Z,61.26
2023-03-26T21:19:05.847Z,61.29
2023-03-26T21:21:46.570Z,61.47
2023-03-26T21:24:33.542Z,61.23
2023-03-26T21:27:16.464Z,61.28
2023-03-26T21:29:45.633Z,61.49
2023-03-26T21:32:14.781Z,61.62
2023-03-26T21:34:55.709Z,61.59
2023-03-26T21:37:28.209Z,61.73
2023-03-26T21:39:58.174Z,61.82
2023-03-26T21:42:29.497Z,61.90
2023-03-26T21:44:58.239Z,61.97
2023-03-26T21:47:27.478Z,61.79
2023-03-26T21:49:56.036Z,61.78
2023-03-26T21:52:25.370Z,61.91
2023-03-26T21:54:56.743Z,65.62
2023-03-26T21:57:45.904Z,66.78
2023-03-26T22:00:18.436Z,61.32
2023-03-26T22:03:20.158Z,55.38
2023-03-26T22:06:07.351Z,53.61
2023-03-26T22:08:38.956Z,54.06
2023-03-26T22:11:09.734Z,55.86
2023-03-26T22:13:39.762Z,56.28
2023-03-26T22:16:10.794Z,57.06
2023-03-26T22:18:39.697Z,57.81
2023-03-26T22:21:08.104Z,58.42
2023-03-26T22:23:38.815Z,58.96
2023-03-26T22:26:07.413Z,59.32
2023-03-26T22:28:37.085Z,60.04
2023-03-26T22:31:08.525Z,60.17
2023-03-26T22:33:40.243Z,60.63
2023-03-26T22:36:22.186Z,60.77
2023-03-26T22:38:54.120Z,61.26
2023-03-26T22:41:22.812Z,61.58
2023-03-26T22:43:54.830Z,62.04
2023-03-26T22:46:24.184Z,62.02
2023-03-26T22:48:53.866Z,61.48
2023-03-26T22:51:23.227Z,66.01
2023-03-26T22:53:51.255Z,67.43
2023-03-26T22:56:20.363Z,63.87
2023-03-26T22:58:48.817Z,57.86
2023-03-26T23:01:20.548Z,55.10
2023-03-26T23:03:50.597Z,55.43
2023-03-26T23:06:21.802Z,56.08
2023-03-26T23:08:51.295Z,56.72
2023-03-26T23:11:22.580Z,57.50
2023-03-26T23:13:51.735Z,57.88
2023-03-26T23:16:21.979Z,58.32
2023-03-26T23:18:50.036Z,58.83
2023-03-26T23:21:21.471Z,59.16
2023-03-26T23:23:52.258Z,59.67
2023-03-26T23:26:20.507Z,60.04
2023-03-26T23:28:51.534Z,60.43
2023-03-26T23:31:19.535Z,60.69
2023-03-26T23:33:50.787Z,61.34
2023-03-26T23:36:20.988Z,61.66
2023-03-26T23:38:49.278Z,61.93
2023-03-26T23:41:21.991Z,61.94
2023-03-26T23:43:53.945Z,65.74
2023-03-26T23:46:26.010Z,66.77
2023-03-26T23:48:55.000Z,61.80
2023-03-26T23:51:24.259Z,55.39
2023-03-26T23:53:53.845Z,53.84
2023-03-26T23:56:22.769Z,54.38
2023-03-26T23:58:51.173Z,55.52
